sensor_id;sensor_type;location;lat;lon;timestamp;pressure;altitude;pressure_sealevel;temperature;humidity
72428;BME280;60419;48.880;18.036;2023-03-20T00:00:25;99119.50;;;8.81;50.10
72428;BME280;60419;48.880;18.036;2023-03-20T00:03:12;99120.97;;;8.55;50.95
72428;BME280;60419;48.880;18.036;2023-03-20T00:05:57;99125.31;;;8.70;50.44
72428;BME280;60419;48.880;18.036;2023-03-20T00:08:43;99127.00;;;8.66;51.17
72428;BME280;60419;48.880;18.036;2023-03-20T00:11:38;99122.97;;;8.44;51.97
72428;BME280;60419;48.880;18.036;2023-03-20T00:14:25;99117.47;;;8.54;51.86
72428;BME280;60419;48.880;18.036;2023-03-20T00:17:13;99124.31;;;8.23;52.49
72428;BME280;60419;48.880;18.036;2023-03-20T00:20:02;99118.53;;;7.86;53.71
72428;BME280;60419;48.880;18.036;2023-03-20T00:22:48;99115.66;;;7.77;53.28
72428;BME280;60419;48.880;18.036;2023-03-20T00:25:33;99108.91;;;7.80;54.47
72428;BME280;60419;48.880;18.036;2023-03-20T00:28:36;99110.13;;;8.17;53.17
72428;BME280;60419;48.880;18.036;2023-03-20T00:34:17;99109.47;;;8.25;52.85
72428;BME280;60419;48.880;18.036;2023-03-20T00:37:03;99105.88;;;8.35;52.59
72428;BME280;60419;48.880;18.036;2023-03-20T00:39:49;99090.75;;;8.15;53.26
72428;BME280;60419;48.880;18.036;2023-03-20T00:42:35;99089.53;;;8.07;53.12
72428;BME280;60419;48.880;18.036;2023-03-20T00:45:21;99101.13;;;8.27;52.43
72428;BME280;60419;48.880;18.036;2023-03-20T00:48:09;99096.78;;;8.31;52.34
72428;BME280;60419;48.880;18.036;2023-03-20T00:50:57;99095.81;;;8.22;52.54
72428;BME280;60419;48.880;18.036;2023-03-20T00:53:42;99060.94;;;8.11;51.84
72428;BME280;60419;48.880;18.036;2023-03-20T00:56:34;99079.88;;;8.25;52.51
72428;BME280;60419;48.880;18.036;2023-03-20T00:59:23;99079.44;;;8.18;52.62
72428;BME280;60419;48.880;18.036;2023-03-20T01:02:10;99074.47;;;8.06;51.85
72428;BME280;60419;48.880;18.036;2023-03-20T01:04:56;99104.47;;;7.94;52.43
72428;BME280;60419;48.880;18.036;2023-03-20T01:07:42;99104.38;;;8.05;51.91
72428;BME280;60419;48.880;18.036;2023-03-20T01:10:30;99076.69;;;7.51;53.45
72428;BME280;60419;48.880;18.036;2023-03-20T01:13:20;99099.94;;;7.66;53.75
72428;BME280;60419;48.880;18.036;2023-03-20T01:16:18;99103.31;;;7.76;53.65
72428;BME280;60419;48.880;18.036;2023-03-20T01:19:04;99109.81;;;7.70;53.21
72428;BME280;60419;48.880;18.036;2023-03-20T01:21:50;99111.53;;;7.61;54.02
72428;BME280;60419;48.880;18.036;2023-03-20T01:24:35;99089.34;;;7.50;53.96
72428;BME280;60419;48.880;18.036;2023-03-20T01:27:21;99108.38;;;7.54;53.92
72428;BME280;60419;48.880;18.036;2023-03-20T01:30:20;99116.84;;;7.42;54.61
72428;BME280;60419;48.880;18.036;2023-03-20T01:33:13;99113.22;;;7.52;54.80
72428;BME280;60419;48.880;18.036;2023-03-20T01:35:58;99106.38;;;7.36;53.94
72428;BME280;60419;48.880;18.036;2023-03-20T01:38:44;99102.63;;;7.31;54.31
72428;BME280;60419;48.880;18.036;2023-03-20T01:41:30;99113.84;;;7.39;54.42
72428;BME280;60419;48.880;18.036;2023-03-20T01:44:27;99110.19;;;7.29;54.60
72428;BME280;60419;48.880;18.036;2023-03-20T01:47:21;99107.97;;;7.37;55.13
72428;BME280;60419;48.880;18.036;2023-03-20T01:50:22;99114.88;;;7.14;56.02
72428;BME280;60419;48.880;18.036;2023-03-20T01:53:13;99121.38;;;6.63;57.25
72428;BME280;60419;48.880;18.036;2023-03-20T01:56:00;99103.06;;;6.31;57.88
72428;BME280;60419;48.880;18.036;2023-03-20T01:58:55;99120.63;;;6.57;58.12
72428;BME280;60419;48.880;18.036;2023-03-20T02:01:42;99117.56;;;6.74;57.96
72428;BME280;60419;48.880;18.036;2023-03-20T02:04:32;99122.75;;;6.60;57.68
72428;BME280;60419;48.880;18.036;2023-03-20T02:07:20;99125.06;;;6.28;59.25
72428;BME280;60419;48.880;18.036;2023-03-20T02:10:10;99125.34;;;6.26;59.14
72428;BME280;60419;48.880;18.036;2023-03-20T02:12:55;99117.94;;;6.57;58.02
72428;BME280;60419;48.880;18.036;2023-03-20T02:18:49;99117.50;;;6.35;58.71
72428;BME280;60419;48.880;18.036;2023-03-20T02:24:51;99116.66;;;5.69;61.42
72428;BME280;60419;48.880;18.036;2023-03-20T02:43:06;99089.84;;;6.84;57.61
72428;BME280;60419;48.880;18.036;2023-03-20T02:46:12;99100.81;;;6.93;56.57
72428;BME280;60419;48.880;18.036;2023-03-20T02:49:28;99114.50;;;6.91;56.49
72428;BME280;60419;48.880;18.036;2023-03-20T02:52:25;99113.06;;;6.64;57.78
72428;BME280;60419;48.880;18.036;2023-03-20T02:55:26;99110.75;;;6.87;57.67
72428;BME280;60419;48.880;18.036;2023-03-20T02:58:33;99112.44;;;6.78;57.59
72428;BME280;60419;48.880;18.036;2023-03-20T03:01:28;99086.03;;;6.95;56.34
72428;BME280;60419;48.880;18.036;2023-03-20T03:04:17;99109.13;;;7.25;55.59
72428;BME280;60419;48.880;18.036;2023-03-20T03:07:09;99106.56;;;7.10;55.92
72428;BME280;60419;48.880;18.036;2023-03-20T03:10:00;99118.63;;;7.13;56.16
72428;BME280;60419;48.880;18.036;2023-03-20T03:12:48;99124.19;;;6.87;56.82
72428;BME280;60419;48.880;18.036;2023-03-20T03:15:42;99126.84;;;6.92;56.77
72428;BME280;60419;48.880;18.036;2023-03-20T03:18:30;99126.34;;;6.40;58.03
72428;BME280;60419;48.880;18.036;2023-03-20T03:21:19;99123.25;;;6.67;57.62
72428;BME280;60419;48.880;18.036;2023-03-20T03:24:23;99124.69;;;6.50;57.59
72428;BME280;60419;48.880;18.036;2023-03-20T03:27:28;99121.13;;;6.64;57.44
72428;BME280;60419;48.880;18.036;2023-03-20T03:30:21;99122.13;;;6.24;59.26
72428;BME280;60419;48.880;18.036;2023-03-20T03:33:35;99113.38;;;5.88;59.55
72428;BME280;60419;48.880;18.036;2023-03-20T03:36:44;99118.72;;;5.93;59.66
72428;BME280;60419;48.880;18.036;2023-03-20T03:40:39;99122.00;;;5.74;60.52
72428;BME280;60419;48.880;18.036;2023-03-20T03:46:11;99126.34;;;5.04;62.27
72428;BME280;60419;48.880;18.036;2023-03-20T03:48:59;99127.16;;;5.30;62.10
72428;BME280;60419;48.880;18.036;2023-03-20T03:51:48;99109.94;;;4.80;63.25
72428;BME280;60419;48.880;18.036;2023-03-20T03:54:50;99132.47;;;4.94;63.10
72428;BME280;60419;48.880;18.036;2023-03-20T03:58:06;99133.03;;;5.42;61.61
72428;BME280;60419;48.880;18.036;2023-03-20T04:00:53;99103.59;;;5.32;61.54
72428;BME280;60419;48.880;18.036;2023-03-20T04:03:51;99120.44;;;5.12;62.36
72428;BME280;60419;48.880;18.036;2023-03-20T04:06:37;99129.03;;;5.40;61.95
72428;BME280;60419;48.880;18.036;2023-03-20T04:09:23;99140.53;;;5.50;61.72
72428;BME280;60419;48.880;18.036;2023-03-20T04:12:34;99142.38;;;5.75;60.71
72428;BME280;60419;48.880;18.036;2023-03-20T04:15:19;99137.81;;;5.76;60.60
72428;BME280;60419;48.880;18.036;2023-03-20T04:18:05;99136.13;;;6.06;59.33
72428;BME280;60419;48.880;18.036;2023-03-20T04:20:51;99145.19;;;6.25;58.64
72428;BME280;60419;48.880;18.036;2023-03-20T04:23:37;99147.34;;;6.18;58.93
72428;BME280;60419;48.880;18.036;2023-03-20T04:26:23;99141.47;;;6.11;58.54
72428;BME280;60419;48.880;18.036;2023-03-20T04:29:08;99147.06;;;6.19;59.25
72428;BME280;60419;48.880;18.036;2023-03-20T04:31:54;99144.63;;;6.33;58.25
72428;BME280;60419;48.880;18.036;2023-03-20T04:34:41;99140.59;;;6.31;58.35
72428;BME280;60419;48.880;18.036;2023-03-20T04:37:26;99131.41;;;5.56;60.81
72428;BME280;60419;48.880;18.036;2023-03-20T04:40:12;99131.13;;;5.78;61.05
72428;BME280;60419;48.880;18.036;2023-03-20T04:42:57;99132.16;;;5.77;60.68
72428;BME280;60419;48.880;18.036;2023-03-20T04:45:42;99142.06;;;5.97;60.54
72428;BME280;60419;48.880;18.036;2023-03-20T04:48:28;99151.97;;;5.97;60.41
72428;BME280;60419;48.880;18.036;2023-03-20T04:51:13;99139.81;;;6.30;59.43
72428;BME280;60419;48.880;18.036;2023-03-20T04:53:58;99151.03;;;6.32;59.42
72428;BME280;60419;48.880;18.036;2023-03-20T04:56:44;99149.34;;;6.57;58.84
72428;BME280;60419;48.880;18.036;2023-03-20T04:59:29;99158.28;;;6.37;58.92
72428;BME280;60419;48.880;18.036;2023-03-20T05:02:14;99145.69;;;6.32;58.22
72428;BME280;60419;48.880;18.036;2023-03-20T05:05:02;99154.66;;;5.97;59.81
72428;BME280;60419;48.880;18.036;2023-03-20T05:07:48;99165.94;;;5.89;60.24
72428;BME280;60419;48.880;18.036;2023-03-20T05:10:33;99169.66;;;6.03;60.04
72428;BME280;60419;48.880;18.036;2023-03-20T05:13:18;99162.38;;;6.19;59.23
72428;BME280;60419;48.880;18.036;2023-03-20T05:16:06;99146.59;;;6.02;59.30
72428;BME280;60419;48.880;18.036;2023-03-20T05:18:52;99160.84;;;5.87;60.06
72428;BME280;60419;48.880;18.036;2023-03-20T05:21:37;99134.38;;;5.45;60.87
72428;BME280;60419;48.880;18.036;2023-03-20T05:24:22;99138.41;;;5.47;61.49
72428;BME280;60419;48.880;18.036;2023-03-20T05:27:07;99162.47;;;5.88;60.07
72428;BME280;60419;48.880;18.036;2023-03-20T05:29:53;99166.94;;;6.18;59.28
72428;BME280;60419;48.880;18.036;2023-03-20T05:32:38;99173.97;;;6.04;59.64
72428;BME280;60419;48.880;18.036;2023-03-20T05:35:24;99160.59;;;5.78;60.68
72428;BME280;60419;48.880;18.036;2023-03-20T05:38:09;99178.59;;;5.42;61.42
72428;BME280;60419;48.880;18.036;2023-03-20T05:40:58;99189.03;;;5.33;61.92
72428;BME280;60419;48.880;18.036;2023-03-20T05:43:44;99180.47;;;5.42;61.96
72428;BME280;60419;48.880;18.036;2023-03-20T05:46:29;99179.63;;;5.77;61.30
72428;BME280;60419;48.880;18.036;2023-03-20T05:49:15;99171.03;;;5.90;60.67
72428;BME280;60419;48.880;18.036;2023-03-20T05:52:00;99176.13;;;5.97;60.36
72428;BME280;60419;48.880;18.036;2023-03-20T05:54:45;99179.06;;;5.95;60.23
72428;BME280;60419;48.880;18.036;2023-03-20T05:57:31;99188.59;;;6.37;69.61
72428;BME280;60419;48.880;18.036;2023-03-20T06:00:17;99183.44;;;6.56;59.69
72428;BME280;60419;48.880;18.036;2023-03-20T06:03:02;99193.25;;;6.76;58.79
72428;BME280;60419;48.880;18.036;2023-03-20T06:05:48;99192.84;;;7.03;57.50
72428;BME280;60419;48.880;18.036;2023-03-20T06:08:33;99196.66;;;6.92;58.28
72428;BME280;60419;48.880;18.036;2023-03-20T06:11:20;99190.75;;;6.95;58.16
72428;BME280;60419;48.880;18.036;2023-03-20T06:14:05;99194.31;;;6.80;58.64
72428;BME280;60419;48.880;18.036;2023-03-20T06:16:51;99204.94;;;6.51;59.64
72428;BME280;60419;48.880;18.036;2023-03-20T06:19:38;99187.38;;;5.99;61.03
72428;BME280;60419;48.880;18.036;2023-03-20T06:22:23;99206.69;;;6.76;60.21
72428;BME280;60419;48.880;18.036;2023-03-20T06:25:09;99200.91;;;7.03;59.18
72428;BME280;60419;48.880;18.036;2023-03-20T06:27:54;99209.06;;;6.88;58.21
72428;BME280;60419;48.880;18.036;2023-03-20T06:30:40;99214.00;;;7.15;58.59
72428;BME280;60419;48.880;18.036;2023-03-20T06:33:25;99214.34;;;7.03;58.44
72428;BME280;60419;48.880;18.036;2023-03-20T06:36:10;99212.97;;;7.11;57.66
72428;BME280;60419;48.880;18.036;2023-03-20T06:38:56;99211.91;;;6.47;58.99
72428;BME280;60419;48.880;18.036;2023-03-20T06:41:41;99206.59;;;6.92;57.38
72428;BME280;60419;48.880;18.036;2023-03-20T06:44:27;99200.31;;;7.11;59.26
72428;BME280;60419;48.880;18.036;2023-03-20T06:47:12;99201.63;;;7.19;56.09
72428;BME280;60419;48.880;18.036;2023-03-20T06:49:57;99203.19;;;8.66;74.96
72428;BME280;60419;48.880;18.036;2023-03-20T06:52:43;99208.22;;;7.37;55.93
72428;BME280;60419;48.880;18.036;2023-03-20T06:55:28;99200.47;;;6.86;56.96
72428;BME280;60419;48.880;18.036;2023-03-20T06:58:14;99210.28;;;7.11;57.14
72428;BME280;60419;48.880;18.036;2023-03-20T07:00:59;99220.72;;;7.57;55.80
72428;BME280;60419;48.880;18.036;2023-03-20T07:03:45;99212.53;;;6.88;57.55
72428;BME280;60419;48.880;18.036;2023-03-20T07:06:30;99215.56;;;7.26;56.69
72428;BME280;60419;48.880;18.036;2023-03-20T07:09:16;99214.41;;;7.72;55.31
72428;BME280;60419;48.880;18.036;2023-03-20T07:12:02;99201.34;;;7.89;56.43
72428;BME280;60419;48.880;18.036;2023-03-20T07:14:48;99218.28;;;7.90;55.94
72428;BME280;60419;48.880;18.036;2023-03-20T07:17:34;99227.28;;;7.75;56.38
72428;BME280;60419;48.880;18.036;2023-03-20T07:20:19;99213.03;;;8.04;56.33
72428;BME280;60419;48.880;18.036;2023-03-20T07:23:05;99225.34;;;7.81;57.22
72428;BME280;60419;48.880;18.036;2023-03-20T07:25:50;99228.16;;;7.65;56.56
72428;BME280;60419;48.880;18.036;2023-03-20T07:28:35;99212.66;;;8.39;56.30
72428;BME280;60419;48.880;18.036;2023-03-20T07:31:23;99219.31;;;8.47;54.98
72428;BME280;60419;48.880;18.036;2023-03-20T07:34:09;99219.56;;;8.70;54.93
72428;BME280;60419;48.880;18.036;2023-03-20T07:36:56;99213.38;;;9.12;53.02
72428;BME280;60419;48.880;18.036;2023-03-20T07:39:41;99211.97;;;8.53;55.00
72428;BME280;60419;48.880;18.036;2023-03-20T07:42:26;99212.41;;;8.84;54.38
72428;BME280;60419;48.880;18.036;2023-03-20T07:45:12;99212.84;;;9.10;54.16
72428;BME280;60419;48.880;18.036;2023-03-20T07:47:58;99219.00;;;8.25;55.63
72428;BME280;60419;48.880;18.036;2023-03-20T07:50:43;99194.78;;;8.01;55.95
72428;BME280;60419;48.880;18.036;2023-03-20T07:53:28;99208.38;;;8.62;55.29
72428;BME280;60419;48.880;18.036;2023-03-20T07:56:14;99205.63;;;8.68;55.09
72428;BME280;60419;48.880;18.036;2023-03-20T07:58:59;99208.19;;;9.16;53.64
72428;BME280;60419;48.880;18.036;2023-03-20T08:01:45;99211.72;;;9.68;52.00
72428;BME280;60419;48.880;18.036;2023-03-20T08:04:30;99210.53;;;9.41;51.95
72428;BME280;60419;48.880;18.036;2023-03-20T08:07:15;99198.97;;;9.41;52.19
72428;BME280;60419;48.880;18.036;2023-03-20T08:10:01;99208.31;;;9.62;51.28
72428;BME280;60419;48.880;18.036;2023-03-20T08:12:47;99202.16;;;9.76;51.34
72428;BME280;60419;48.880;18.036;2023-03-20T08:15:32;99182.34;;;10.41;49.78
72428;BME280;60419;48.880;18.036;2023-03-20T08:18:18;99201.44;;;10.72;48.27
72428;BME280;60419;48.880;18.036;2023-03-20T08:21:06;99194.41;;;10.98;47.94
72428;BME280;60419;48.880;18.036;2023-03-20T13:01:56;98999.00;;;17.90;38.10
72428;BME280;60419;48.880;18.036;2023-03-20T13:05:35;99002.88;;;18.24;37.38
72428;BME280;60419;48.880;18.036;2023-03-20T13:08:46;99008.78;;;18.27;38.00
72428;BME280;60419;48.880;18.036;2023-03-20T13:14:51;98999.63;;;17.36;39.66
72428;BME280;60419;48.880;18.036;2023-03-20T13:20:54;98998.28;;;18.29;37.67
72428;BME280;60419;48.880;18.036;2023-03-20T13:23:48;98997.50;;;17.93;37.90
72428;BME280;60419;48.880;18.036;2023-03-20T13:26:54;98994.06;;;18.51;37.01
72428;BME280;60419;48.880;18.036;2023-03-20T13:32:38;98991.69;;;17.15;38.97
72428;BME280;60419;48.880;18.036;2023-03-20T13:35:34;98982.75;;;17.97;37.85
72428;BME280;60419;48.880;18.036;2023-03-20T13:38:28;98997.47;;;18.09;37.29
72428;BME280;60419;48.880;18.036;2023-03-20T13:41:17;98983.34;;;18.61;36.44
72428;BME280;60419;48.880;18.036;2023-03-20T13:44:03;98983.09;;;18.12;36.90
72428;BME280;60419;48.880;18.036;2023-03-20T13:46:59;98978.94;;;18.37;37.04
72428;BME280;60419;48.880;18.036;2023-03-20T13:50:00;98974.41;;;17.90;38.03
72428;BME280;60419;48.880;18.036;2023-03-20T13:53:05;98983.94;;;18.16;37.50
72428;BME280;60419;48.880;18.036;2023-03-20T13:59:14;98979.31;;;16.89;39.20
72428;BME280;60419;48.880;18.036;2023-03-20T14:05:21;98983.66;;;17.22;39.36
72428;BME280;60419;48.880;18.036;2023-03-20T14:11:25;98985.16;;;16.35;41.04
72428;BME280;60419;48.880;18.036;2023-03-20T14:14:29;98993.13;;;16.68;40.04
72428;BME280;60419;48.880;18.036;2023-03-20T14:17:25;98990.09;;;16.17;41.53
72428;BME280;60419;48.880;18.036;2023-03-20T14:20:21;98988.97;;;16.46;40.84
72428;BME280;60419;48.880;18.036;2023-03-20T14:23:19;98993.03;;;16.12;41.50
72428;BME280;60419;48.880;18.036;2023-03-20T14:32:22;98985.47;;;16.05;41.77
72428;BME280;60419;48.880;18.036;2023-03-20T14:35:26;99003.94;;;15.75;43.02
72428;BME280;60419;48.880;18.036;2023-03-20T14:41:56;99004.53;;;15.56;42.89
72428;BME280;60419;48.880;18.036;2023-03-20T14:51:13;99004.22;;;15.95;42.86
72428;BME280;60419;48.880;18.036;2023-03-20T14:54:39;99008.66;;;15.87;42.63
72428;BME280;60419;48.880;18.036;2023-03-20T14:57:32;99009.06;;;15.89;42.82
72428;BME280;60419;48.880;18.036;2023-03-20T15:00:25;98995.56;;;15.68;42.71
72428;BME280;60419;48.880;18.036;2023-03-20T15:03:16;98994.81;;;16.33;41.97
72428;BME280;60419;48.880;18.036;2023-03-20T15:06:05;98997.41;;;16.41;41.88
72428;BME280;60419;48.880;18.036;2023-03-20T15:08:59;98992.25;;;16.24;41.81
72428;BME280;60419;48.880;18.036;2023-03-20T15:11:47;98996.22;;;16.26;42.07
72428;BME280;60419;48.880;18.036;2023-03-20T15:14:41;98993.19;;;16.03;42.86
72428;BME280;60419;48.880;18.036;2023-03-20T15:17:43;99006.59;;;15.84;43.39
72428;BME280;60419;48.880;18.036;2023-03-20T15:20:29;98996.84;;;15.83;43.49
72428;BME280;60419;48.880;18.036;2023-03-20T15:23:15;98999.88;;;15.69;43.34
72428;BME280;60419;48.880;18.036;2023-03-20T15:26:01;98997.94;;;15.70;43.11
72428;BME280;60419;48.880;18.036;2023-03-20T15:28:48;99006.22;;;15.73;43.25
72428;BME280;60419;48.880;18.036;2023-03-20T15:31:36;99008.50;;;15.71;43.23
72428;BME280;60419;48.880;18.036;2023-03-20T15:34:25;98991.16;;;17.25;54.20
72428;BME280;60419;48.880;18.036;2023-03-20T15:37:18;99005.28;;;16.99;41.27
72428;BME280;60419;48.880;18.036;2023-03-20T15:40:30;98996.25;;;15.53;44.44
72428;BME280;60419;48.880;18.036;2023-03-20T15:43:17;99008.38;;;16.04;43.78
72428;BME280;60419;48.880;18.036;2023-03-20T15:46:04;99002.38;;;15.74;44.81
72428;BME280;60419;48.880;18.036;2023-03-20T15:48:49;98985.31;;;15.28;45.29
72428;BME280;60419;48.880;18.036;2023-03-20T15:51:35;98989.34;;;15.92;43.73
72428;BME280;60419;48.880;18.036;2023-03-20T15:54:20;98983.53;;;15.94;44.14
72428;BME280;60419;48.880;18.036;2023-03-20T15:57:06;99003.94;;;15.75;44.28
72428;BME280;60419;48.880;18.036;2023-03-20T15:59:51;99010.78;;;15.94;44.11
72428;BME280;60419;48.880;18.036;2023-03-20T16:02:37;98999.97;;;16.10;44.55
72428;BME280;60419;48.880;18.036;2023-03-20T16:05:25;99001.63;;;16.39;43.62
72428;BME280;60419;48.880;18.036;2023-03-20T16:08:31;99008.38;;;16.17;43.91
72428;BME280;60419;48.880;18.036;2023-03-20T16:11:17;99010.09;;;16.09;43.88
72428;BME280;60419;48.880;18.036;2023-03-20T16:14:04;99003.28;;;16.03;44.79
72428;BME280;60419;48.880;18.036;2023-03-20T16:16:51;99011.41;;;16.27;43.57
72428;BME280;60419;48.880;18.036;2023-03-20T16:19:38;98998.31;;;16.05;44.02
72428;BME280;60419;48.880;18.036;2023-03-20T16:22:27;99019.31;;;16.57;43.37
72428;BME280;60419;48.880;18.036;2023-03-20T16:25:16;98987.50;;;16.77;42.14
72428;BME280;60419;48.880;18.036;2023-03-20T16:28:03;99023.75;;;16.78;42.42
72428;BME280;60419;48.880;18.036;2023-03-20T16:30:51;99022.50;;;16.75;42.70
72428;BME280;60419;48.880;18.036;2023-03-20T16:33:38;99020.03;;;16.42;43.76
72428;BME280;60419;48.880;18.036;2023-03-20T16:36:30;99030.59;;;16.71;49.53
72428;BME280;60419;48.880;18.036;2023-03-20T16:44:54;99035.28;;;16.83;42.53
72428;BME280;60419;48.880;18.036;2023-03-20T16:47:40;99038.53;;;17.17;41.72
72428;BME280;60419;48.880;18.036;2023-03-20T16:50:33;99047.56;;;17.05;41.75
72428;BME280;60419;48.880;18.036;2023-03-20T16:53:19;99038.06;;;17.15;41.42
72428;BME280;60419;48.880;18.036;2023-03-20T16:56:13;99045.72;;;17.09;42.06
72428;BME280;60419;48.880;18.036;2023-03-20T16:59:08;99040.94;;;16.38;43.58
72428;BME280;60419;48.880;18.036;2023-03-20T17:01:58;99050.00;;;15.56;45.54
72428;BME280;60419;48.880;18.036;2023-03-20T17:04:46;99047.88;;;16.23;44.74
72428;BME280;60419;48.880;18.036;2023-03-20T17:07:32;99041.16;;;16.33;44.08
72428;BME280;60419;48.880;18.036;2023-03-20T17:13:04;99040.16;;;16.13;50.51
72428;BME280;60419;48.880;18.036;2023-03-20T17:15:51;99042.78;;;16.09;44.99
72428;BME280;60419;48.880;18.036;2023-03-20T17:18:36;99027.44;;;16.29;44.23
72428;BME280;60419;48.880;18.036;2023-03-20T17:21:23;99031.06;;;16.74;43.53
72428;BME280;60419;48.880;18.036;2023-03-20T17:24:09;99033.75;;;17.14;42.45
72428;BME280;60419;48.880;18.036;2023-03-20T17:26:54;99034.38;;;17.23;42.29
72428;BME280;60419;48.880;18.036;2023-03-20T17:29:40;99006.53;;;17.02;43.91
72428;BME280;60419;48.880;18.036;2023-03-20T17:32:25;99037.44;;;17.22;42.47
72428;BME280;60419;48.880;18.036;2023-03-20T17:35:11;99030.63;;;17.28;42.13
72428;BME280;60419;48.880;18.036;2023-03-20T17:37:56;99025.44;;;16.95;43.06
72428;BME280;60419;48.880;18.036;2023-03-20T17:40:43;99025.97;;;17.00;43.20
72428;BME280;60419;48.880;18.036;2023-03-20T17:43:28;99031.94;;;16.90;43.39
72428;BME280;60419;48.880;18.036;2023-03-20T17:46:19;99022.78;;;16.98;43.03
72428;BME280;60419;48.880;18.036;2023-03-20T17:49:09;99024.72;;;16.98;42.94
72428;BME280;60419;48.880;18.036;2023-03-20T17:51:56;99027.28;;;17.06;42.71
72428;BME280;60419;48.880;18.036;2023-03-20T17:54:42;99014.88;;;17.09;45.33
72428;BME280;60419;48.880;18.036;2023-03-20T17:57:38;99029.75;;;16.96;43.53
72428;BME280;60419;48.880;18.036;2023-03-20T18:00:24;99038.41;;;16.85;43.36
72428;BME280;60419;48.880;18.036;2023-03-20T18:03:10;99032.28;;;16.36;44.64
72428;BME280;60419;48.880;18.036;2023-03-20T18:05:55;99040.78;;;16.46;44.42
72428;BME280;60419;48.880;18.036;2023-03-20T18:08:41;99031.63;;;16.67;43.64
72428;BME280;60419;48.880;18.036;2023-03-20T18:11:27;99029.22;;;16.49;43.87
72428;BME280;60419;48.880;18.036;2023-03-20T18:14:12;99047.94;;;16.51;44.15
72428;BME280;60419;48.880;18.036;2023-03-20T18:17:01;99045.91;;;16.36;44.89
72428;BME280;60419;48.880;18.036;2023-03-20T18:19:47;99048.00;;;16.02;45.65
72428;BME280;60419;48.880;18.036;2023-03-20T18:22:32;99056.19;;;15.90;46.02
72428;BME280;60419;48.880;18.036;2023-03-20T18:25:17;99066.03;;;14.91;48.63
72428;BME280;60419;48.880;18.036;2023-03-20T18:28:05;98991.50;;;14.71;48.00
72428;BME280;60419;48.880;18.036;2023-03-20T18:30:51;99063.38;;;15.49;47.51
72428;BME280;60419;48.880;18.036;2023-03-20T18:33:36;99062.38;;;15.53;47.35
72428;BME280;60419;48.880;18.036;2023-03-20T18:36:23;99074.41;;;15.65;47.06
72428;BME280;60419;48.880;18.036;2023-03-20T18:39:15;99071.59;;;15.28;48.06
72428;BME280;60419;48.880;18.036;2023-03-20T18:42:01;99069.63;;;15.61;46.74
72428;BME280;60419;48.880;18.036;2023-03-20T18:44:46;99069.75;;;15.65;46.69
72428;BME280;60419;48.880;18.036;2023-03-20T18:47:32;99078.97;;;13.93;51.65
72428;BME280;60419;48.880;18.036;2023-03-20T18:53:09;99077.63;;;14.79;49.09
72428;BME280;60419;48.880;18.036;2023-03-20T18:55:55;99056.03;;;14.83;48.75
72428;BME280;60419;48.880;18.036;2023-03-20T18:58:40;99065.66;;;14.50;49.47
72428;BME280;60419;48.880;18.036;2023-03-20T19:01:26;99071.59;;;14.94;48.27
72428;BME280;60419;48.880;18.036;2023-03-20T19:04:11;99073.97;;;15.17;47.78
72428;BME280;60419;48.880;18.036;2023-03-20T19:06:57;99071.59;;;15.28;47.61
72428;BME280;60419;48.880;18.036;2023-03-20T19:09:42;99068.31;;;15.22;47.27
72428;BME280;60419;48.880;18.036;2023-03-20T19:12:27;99073.59;;;15.18;47.96
72428;BME280;60419;48.880;18.036;2023-03-20T19:15:13;99012.31;;;14.67;48.03
72428;BME280;60419;48.880;18.036;2023-03-20T19:17:58;99078.97;;;14.94;48.84
72428;BME280;60419;48.880;18.036;2023-03-20T19:20:47;99071.31;;;15.08;48.01
72428;BME280;60419;48.880;18.036;2023-03-20T19:23:32;99078.50;;;14.92;48.24
72428;BME280;60419;48.880;18.036;2023-03-20T19:26:19;99058.59;;;13.13;52.67
72428;BME280;60419;48.880;18.036;2023-03-20T19:29:05;99077.22;;;12.28;55.80
72428;BME280;60419;48.880;18.036;2023-03-20T19:31:52;99080.75;;;12.54;55.41
72428;BME280;60419;48.880;18.036;2023-03-20T19:34:37;99076.75;;;12.34;56.13
72428;BME280;60419;48.880;18.036;2023-03-20T19:37:22;99096.41;;;12.66;55.52
72428;BME280;60419;48.880;18.036;2023-03-20T19:43:12;99082.00;;;13.53;53.55
72428;BME280;60419;48.880;18.036;2023-03-20T19:45:57;99089.38;;;13.82;52.28
72428;BME280;60419;48.880;18.036;2023-03-20T19:48:43;99093.31;;;13.93;52.13
72428;BME280;60419;48.880;18.036;2023-03-20T19:51:30;99094.31;;;13.88;51.96
72428;BME280;60419;48.880;18.036;2023-03-20T19:54:15;99091.28;;;13.90;52.09
72428;BME280;60419;48.880;18.036;2023-03-20T19:57:01;99092.03;;;13.99;51.38
72428;BME280;60419;48.880;18.036;2023-03-20T19:59:46;99091.09;;;13.95;51.12
72428;BME280;60419;48.880;18.036;2023-03-20T20:02:32;99091.38;;;13.64;52.10
72428;BME280;60419;48.880;18.036;2023-03-20T20:05:38;99089.59;;;13.68;52.30
72428;BME280;60419;48.880;18.036;2023-03-20T20:08:23;99088.94;;;13.71;52.36
72428;BME280;60419;48.880;18.036;2023-03-20T20:11:09;99088.31;;;13.74;52.16
72428;BME280;60419;48.880;18.036;2023-03-20T20:13:57;99086.72;;;13.73;52.48
72428;BME280;60419;48.880;18.036;2023-03-20T20:16:42;99089.06;;;13.19;54.08
72428;BME280;60419;48.880;18.036;2023-03-20T20:19:29;99091.94;;;13.14;54.18
72428;BME280;60419;48.880;18.036;2023-03-20T20:22:14;99098.00;;;13.11;54.31
72428;BME280;60419;48.880;18.036;2023-03-20T20:25:00;99101.69;;;12.71;55.71
72428;BME280;60419;48.880;18.036;2023-03-20T20:27:46;99098.59;;;12.55;56.20
72428;BME280;60419;48.880;18.036;2023-03-20T20:30:32;99108.81;;;12.01;57.95
72428;BME280;60419;48.880;18.036;2023-03-20T20:33:18;99092.22;;;11.94;58.07
72428;BME280;60419;48.880;18.036;2023-03-20T20:36:11;99100.91;;;12.22;57.26
72428;BME280;60419;48.880;18.036;2023-03-20T20:38:58;99105.44;;;12.35;56.99
72428;BME280;60419;48.880;18.036;2023-03-20T20:41:44;99111.09;;;12.74;55.57
72428;BME280;60419;48.880;18.036;2023-03-20T20:44:29;99102.47;;;12.81;55.32